ADDS METAR Data INFO
IDs: Format: Raw Decoded Include TAF

Data at: 0027 UTC 11 Dec 2017

KFFM 110015Z AUTO 00000KT 10SM OVC090 M03/M06 A3003 RMK AO2
KFFM 102355Z AUTO 00000KT 10SM OVC090 M03/M07 A3004 RMK AO2
KFFM 102335Z AUTO 00000KT 10SM OVC090 M03/M07 A3005 RMK AO2
KFFM 102315Z AUTO 00000KT 10SM OVC090 M03/M07 A3005 RMK AO2
KFFM 102255Z AUTO 33004KT 10SM OVC090 M03/M06 A3005 RMK AO2
KFFM 102235Z AUTO 33003KT 10SM OVC090 M03/M07 A3005 RMK AO2
KFFM 102215Z AUTO 33004KT 10SM OVC090 M03/M07 A3005 RMK AO2
KFFM 102155Z AUTO 32006KT 10SM OVC090 M03/M06 A3006 RMK AO2
KFFM 102135Z AUTO 31007KT 10SM OVC090 M03/M07 A3006 RMK AO2
KFFM 102115Z AUTO 31007KT 10SM OVC100 M03/M07 A3006 RMK AO2
KFFM 102055Z AUTO 31006KT 10SM OVC100 M03/M07 A3006 RMK AO2
KFFM 102035Z AUTO 35006KT 10SM BKN100 M03/M07 A3005 RMK AO2
KFFM 102015Z AUTO 35005KT 10SM BKN100 M03/M07 A3005 RMK AO2
KFFM 101955Z AUTO 35007KT 10SM CLR M03/M07 A3005 RMK AO2
KFFM 101935Z AUTO 33007KT 10SM SCT120 M04/M07 A3005 RMK AO2
KFFM 101915Z AUTO 34008KT 10SM SCT120 M04/M07 A3006 RMK AO2
KFFM 101855Z AUTO 34007KT 10SM SCT110 M03/M07 A3006 RMK AO2
KFFM 101835Z AUTO 32009KT 10SM SCT120 M04/M07 A3007 RMK AO2
KFFM 101815Z AUTO 33008KT 10SM SCT120 M04/M07 A3007 RMK AO2
KFFM 101755Z AUTO 33012KT 10SM CLR M04/M07 A3008 RMK AO2
KFFM 101735Z AUTO 34011KT 10SM SCT013 M04/M07 A3007 RMK AO2
KFFM 101715Z AUTO 33009KT 10SM SCT011 M04/M07 A3007 RMK AO2
KFFM 101655Z AUTO 32009KT 10SM CLR M04/M07 A3007 RMK AO2
KFFM 101635Z AUTO 32008KT 10SM CLR M04/M07 A3006 RMK AO2
KFFM 101615Z AUTO 32008KT 10SM CLR M04/M07 A3006 RMK AO2
KFFM 101555Z AUTO 34005KT 10SM SCT011 M05/M07 A3005 RMK AO2
KFFM 101535Z AUTO 35006KT 10SM SCT011 M06/M08 A3005 RMK AO2
KFFM 101515Z AUTO 34004KT 10SM SCT011 M06/M08 A3004 RMK AO2
KFFM 101455Z AUTO 01004KT 10SM CLR M07/M08 A3003 RMK AO2
KFFM 101435Z AUTO 02006KT 10SM CLR M07/M08 A3003 RMK AO2
KFFM 101416Z AUTO 36006KT 10SM CLR M07/M08 A3003 RMK AO2
KFFM 101355Z AUTO 35011KT 10SM CLR M07/M08 A3003 RMK AO2
KFFM 101335Z AUTO 34009KT 10SM BKN016 M07/M08 A3001 RMK AO2
KFFM 101315Z AUTO 34011KT 10SM OVC018 M07/M08 A3003 RMK AO2
KFFM 101255Z AUTO 34009KT 10SM BKN018 M06/M08 A3002 RMK AO2
KFFM 101235Z AUTO 33010KT 10SM SCT018 M07/M08 A3001 RMK AO2
KFFM 101215Z AUTO 33011KT 10SM CLR M06/M08 A3001 RMK AO2
KFFM 101155Z AUTO 33010KT 10SM SCT110 M06/M08 A2999 RMK AO2
KFFM 101135Z AUTO 34015G21KT 10SM SCT110 M05/M07 A2998 RMK AO2
KFFM 101115Z AUTO 34013G19KT 10SM CLR M05/M07 A2998 RMK AO2
KFFM 101055Z AUTO 34013G21KT 10SM CLR M04/M07 A2997 RMK AO2
KFFM 101035Z AUTO 34015G23KT 10SM CLR M04/M07 A2995 RMK AO2
KFFM 101015Z AUTO 34017G24KT 10SM CLR M04/M07 A2994 RMK AO2
KFFM 100955Z AUTO 35019G26KT 10SM CLR M04/M07 A2994 RMK AO2
KFFM 100935Z AUTO 35016G22KT 10SM CLR M03/M07 A2992 RMK AO2
KFFM 100915Z AUTO 34013G16KT 10SM CLR M03/M06 A2992 RMK AO2
KFFM 100855Z AUTO 34014KT 10SM CLR M03/M06 A2991 RMK AO2
KFFM 100835Z AUTO 34010KT 10SM CLR M03/M06 A2990 RMK AO2
KFFM 100815Z AUTO 34012G17KT 10SM CLR M03/M06 A2990 RMK AO2
KFFM 100755Z AUTO 34014G20KT 10SM CLR M03/M06 A2989 RMK AO2
KFFM 100735Z AUTO 34014G19KT 10SM CLR M03/M06 A2988 RMK AO2
KFFM 100715Z AUTO 33009KT 10SM CLR M04/M07 A2988 RMK AO2
KFFM 100655Z AUTO 33008KT 10SM CLR M04/M06 A2987 RMK AO2
KFFM 100635Z AUTO 34009KT 10SM CLR M04/M06 A2987 RMK AO2
KFFM 100615Z AUTO 33009KT 10SM CLR M05/M07 A2987 RMK AO2
KFFM 100555Z AUTO 33005KT 10SM CLR M06/M07 A2985 RMK AO2
KFFM 100535Z AUTO 33005KT 10SM CLR M06/M07 A2984 RMK AO2
KFFM 100515Z AUTO 31003KT 10SM CLR M06/M07 A2983 RMK AO2
KFFM 100455Z AUTO 00000KT 10SM CLR M06/M07 A2982 RMK AO2
KFFM 100435Z AUTO 00000KT 10SM CLR M06/M07 A2982 RMK AO2
KFFM 100415Z AUTO 21004KT 10SM CLR M07/M08 A2982 RMK AO2
KFFM 100355Z AUTO 19005KT 10SM CLR M07/M09 A2982 RMK AO2
KFFM 100335Z AUTO 20005KT 10SM CLR M07/M08 A2983 RMK AO2
KFFM 100315Z AUTO 19006KT 10SM CLR M06/M08 A2984 RMK AO2
KFFM 100255Z AUTO 20007KT 10SM CLR M06/M07 A2984 RMK AO2
KFFM 100235Z AUTO 20009KT 10SM CLR M05/M07 A2985 RMK AO2
KFFM 100215Z AUTO 20008KT 10SM CLR M06/M08 A2987 RMK AO2
KFFM 100155Z AUTO 18009KT 10SM CLR M06/M08 A2988 RMK AO2
KFFM 100135Z AUTO 19009KT 10SM CLR M05/M08 A2987 RMK AO2
KFFM 100115Z AUTO 18010KT 10SM CLR M06/M08 A2988 RMK AO2
KFFM 100055Z AUTO 19010KT 10SM CLR M06/M08 A2989 RMK AO2
KFFM 100035Z AUTO 19009KT 10SM CLR M06/M08 A2992 RMK AO2
KFFM 100015Z AUTO 19009KT 10SM CLR M05/M08 A2993 RMK AO2
KFFM 092355Z AUTO 20010KT 10SM SCT100 M06/M09 A2993 RMK AO2
KFFM 092335Z AUTO 19010KT 10SM BKN100 M06/M09 A2994 RMK AO2
KFFM 092315Z AUTO 19010KT 10SM OVC100 M06/M09 A2995 RMK AO2
KFFM 092255Z AUTO 20010KT 10SM OVC110 M06/M09 A2998 RMK AO2
KFFM 092235Z AUTO 20009KT 10SM OVC110 M06/M09 A2999 RMK AO2
KFFM 092215Z AUTO 21008KT 10SM SCT110 M06/M09 A3000 RMK AO2
KFFM 092155Z AUTO 21009KT 10SM CLR M06/M09 A3001 RMK AO2
KFFM 092135Z AUTO 21009KT 10SM SCT120 M06/M09 A3002 RMK AO2
KFFM 092115Z AUTO 22007KT 10SM CLR M06/M09 A3003 RMK AO2
KFFM 092055Z AUTO 23009KT 10SM CLR M06/M09 A3004 RMK AO2
KFFM 092035Z AUTO 24007KT 10SM CLR M06/M10 A3007 RMK AO2
KFFM 092015Z AUTO 25007KT 10SM CLR M06/M10 A3009 RMK AO2
KFFM 091955Z AUTO 29006KT 10SM CLR M07/M11 A3010 RMK AO2
KFFM 091935Z AUTO 29006KT 10SM CLR M07/M12 A3009 RMK AO2
KFFM 091915Z AUTO 33007KT 10SM CLR M07/M11 A3011 RMK AO2
KFFM 091855Z AUTO 32006KT 10SM BKN016 M07/M11 A3013 RMK AO2
KFFM 091835Z AUTO 31007KT 10SM -SN OVC016 M08/M11 A3014 RMK AO2
KFFM 091815Z AUTO 31007KT 10SM OVC018 M08/M12 A3015 RMK AO2
KFFM 091755Z AUTO 32008KT 10SM BKN018 M08/M12 A3015 RMK AO2
KFFM 091735Z AUTO 32010KT 10SM CLR M08/M12 A3016 RMK AO2
KFFM 091715Z AUTO 34009KT 10SM SCT016 M08/M12 A3016 RMK AO2
KFFM 091655Z AUTO 35009KT 10SM CLR M08/M12 A3017 RMK AO2
KFFM 091635Z AUTO 32009KT 10SM CLR M09/M12 A3016 RMK AO2
KFFM 091615Z AUTO 33009KT 10SM CLR M09/M13 A3017 RMK AO2
KFFM 091555Z AUTO 33009KT 10SM CLR M09/M13 A3016 RMK AO2
KFFM 091535Z AUTO 34007KT 10SM CLR M11/M13 A3017 RMK AO2
KFFM 091515Z AUTO 33006KT 10SM CLR M11/M14 A3016 RMK AO2
KFFM 091455Z AUTO 32008KT 10SM CLR M11/M14 A3016 RMK AO2
KFFM 091435Z AUTO 31009KT 10SM CLR M12/M14 A3016 RMK AO2
KFFM 091415Z AUTO 33008KT 10SM CLR M11/M14 A3017 RMK AO2
KFFM 091355Z AUTO 33009KT 10SM CLR M11/M14 A3016 RMK AO2
KFFM 091335Z AUTO 35008KT 10SM CLR M11/M14 A3016 RMK AO2
KFFM 091315Z AUTO 34010KT 10SM SCT016 M11/M14 A3015 RMK AO2
KFFM 091255Z AUTO 35010KT 10SM SCT018 M11/M14 A3014 RMK AO2
KFFM 091235Z AUTO 34010KT 10SM CLR M11/M14 A3013 RMK AO2